Redwood City, CA (94065)

8:31 PM PDT on August 29, 2014 (GMT -0700)
Lauriedale | Change Station
CLOSE
Current Station
Personal Weather Station
Location: San Mateo, CA
Elevation: 30 ft
Nearby Weather Stations

Elev 30 ft 37.53 °N, 122.29 °W | Updated 5 seconds ago

Mostly Cloudy
Mostly Cloudy
68.6 °F
Feels Like 68.6 °F
N
0.0
Wind Variable Wind from West
Gusts 0.4 mph

Today
High -- | Low -- °F
--% Chance of Precip.
Yesterday
High -- | Low -- °F
Precip. -- in
6:36 AM 7:42 PM
Waxing Crescent, 18% visible
Pressure 29.90 in
Visibility 10.0 miles
Clouds Scattered Clouds 8000 ft
Mostly Cloudy 18000 ft
Dew Point 56 °F
Humidity 64%
Rainfall 0.00 in
Snow Depth Not available.
UV 0 out of 12
Pollen 7.40 out of 12
Ozone Good
PM2.5 Good
Flu Activity Not available.
METAR KSQL 300247Z 02005KT 10SM SCT080 BKN180 19/16 A2990

More Conditions Fewer Conditions

Pressure 29.90 in
Visibility 10.0 miles
Clouds Scattered Clouds 8000 ft
Mostly Cloudy 18000 ft
Dew Point 56 °F
Humidity 64%
Rainfall 0.00 in
Snow Depth Not available.
UV 0 out of 12
Pollen 7.40 out of 12
Ozone Good
PM2.5 Good
Flu Activity Not available.
METAR KSQL 300247Z 02005KT 10SM SCT080 BKN180 19/16 A2990

More Conditions Fewer Conditions

10-Day Weather Forecast

Almanac

Astronomy

Aug. 29, 2014 Rise Set
Actual Time 6:36 AM PDT 7:42 PM PDT
Civil Twilight 6:09 AM PDT 8:09 PM PDT
Nautical Twilight 5:37 AM PDT 8:41 PM PDT
Astronomical Twilight 5:04 AM PDT 9:14 PM PDT
Moon 10:26 AM PDT (8/29) 9:48 PM PDT (8/29)
Length of Visible Light 13h 59m
Length of Day
13h 05m
Tomorrow will be 2m 17s shorter.
Waxing Crescent, 18% of the Moon is Illuminated
Today
Waxing Crescent
Sep 2
First Quarter
Sep 8
Full
Sep 15
Last Quarter
Sep 24
New

Today's Extremes

State Highs State Lows

Community

WunderPhotos

Upload Photos

1,748,432 photos uploaded!

Nearby

Air Quality

  Air Quality AQ Index Pollutant
Yesterday Good
PM2.5
Yesterday Good
OZONE
Current Good
PM2.5
Current Good
OZONE
Friday Good
PM2.5
Saturday Good
PM2.5
Sunday Good
OZONE
Monday Good
OZONE
Tuesday Good
PM2.5
Wednesday Good
OZONE

Snow Depth

Station Depth Elevation
Echo Peak 0 in 7800 ft
Hagan's Meadow 0 in 8000 ft
Leavitt Meadows 0 in 7200 ft
Summit Meadow 0 in 9122 ft
CSS Lab 2 in 6900 ft

Earthquake Activity

City Distance Mag. Time & Date
Ridgemark, California 77 miles 3.5 4:32 PM PDT
2014-08-29
The Geysers, California 94 miles 2.7 2:53 PM PDT
2014-08-29
Ridgemark, California 77 miles 3.0 2:44 PM PDT
2014-08-29
Napa, California 49 miles 2.6 11:57 AM PDT
2014-08-27
Minimum magnitude displayed is 2.5.

Coastal Water Temperatures

Place Temperature
No Stations Reporting

Nearby Weather Stations